Sankoumaru 31 — JD2200 — position and weather

sailwx.info

Track history (hours):
 
Tides and Currents Weather Stations Pressure Air Temp Water Temp Dewpoint Dewpoint Depression Visibility Wind Speed Wind Dir Waves Ship Positions

Sankoumaru 31

Last reported at 2016-May-05 02:32 UTC. Time now 2016-May-05 02:54 UTC.
Position N 35°22' E 139°53'.

Length 75 m; draft 5 m.

Type: Cargo ship. MMSI: 431501842.

Date/timePositionNaut miles runAvg speedWind from/ knotsBaromVisibWave heightAir tempDewpointWater temp
2016-May-05 02:32N 35°22' E 139°53'0 0.0
2016-May-05 01:32N 35°22' E 139°53'0 0.0
2016-May-05 00:32N 35°22' E 139°53'0 0.0
2016-May-04 23:32N 35°22' E 139°53'0 0.0
2016-May-04 22:23N 35°22' E 139°53'0 0.0
2016-May-04 21:29N 35°22' E 139°53'0 0.0
2016-May-04 20:29N 35°22' E 139°53'0 0.0
2016-May-04 19:17N 35°22' E 139°53'0 0.0
2016-May-04 18:23N 35°22' E 139°53'0 0.0
2016-May-04 17:26N 35°22' E 139°53'0 0.0
2016-May-04 16:20N 35°22' E 139°53'0 0.0
2016-May-04 15:29N 35°22' E 139°53'0 0.0
2016-May-04 14:32N 35°22' E 139°53'0 0.0
2016-May-04 13:32N 35°22' E 139°53'0 0.0
2016-May-04 12:32N 35°22' E 139°53'0 0.0
2016-May-04 11:29N 35°22' E 139°53'0 0.0
2016-May-04 10:20N 35°22' E 139°53'0 0.0
2016-May-04 09:26N 35°22' E 139°53'0 0.0
2016-May-04 07:32N 35°22' E 139°53'0 0.0
2016-May-04 06:32N 35°22' E 139°53'0 0.0
2016-May-04 05:26N 35°22' E 139°53'0 0.0
2016-May-04 04:32N 35°22' E 139°53'0 0.0
2016-May-04 03:29N 35°22' E 139°53'0 0.0
2016-May-04 02:32N 35°22' E 139°53'0 0.0
2016-May-04 01:32N 35°22' E 139°53'0 0.0
2016-May-04 00:23N 35°22' E 139°53'0 0.0
2016-May-03 23:29N 35°22' E 139°53'0 0.0
2016-May-03 22:26N 35°22' E 139°53'0 0.0
2016-May-03 21:20N 35°22' E 139°53'0 0.0
2016-May-03 20:23N 35°22' E 139°53'0 0.0
2016-May-03 19:20N 35°22' E 139°53'0 0.0
2016-May-03 18:32N 35°22' E 139°53'0 0.0
2016-May-03 17:29N 35°22' E 139°53'0 0.0
2016-May-03 16:29N 35°22' E 139°53'0 0.0
2016-May-03 15:29N 35°22' E 139°53'0 0.0
2016-May-03 14:32N 35°22' E 139°53'0 0.0
2016-May-03 13:32N 35°22' E 139°53'0 0.0
2016-May-03 12:32N 35°22' E 139°53'0 0.0
2016-May-03 11:32N 35°22' E 139°53'0 0.0
2016-May-03 10:32N 35°22' E 139°53'0 0.0
2016-May-03 09:26N 35°22' E 139°53'0 0.0
2016-May-03 08:26N 35°22' E 139°53'0 0.0
2016-May-03 07:32N 35°22' E 139°53'0 0.0
2016-May-03 06:32N 35°22' E 139°53'0 0.0
2016-May-03 05:26N 35°22' E 139°53'0 0.0
2016-May-03 04:33N 35°22' E 139°53'0 0.0
2016-May-03 03:33N 35°22' E 139°53'0 0.0
2016-May-03 02:33N 35°22' E 139°53'0 0.0
2016-May-03 01:33N 35°22' E 139°53'1 0.7
2016-May-03 00:33N 35°22' E 139°53'1 1.3
2016-May-02 23:33N 35°22' E 139°51'0 0.0
2016-May-02 22:30N 35°22' E 139°51'0 0.0
2016-May-02 21:33N 35°22' E 139°51'0 0.0
2016-May-02 20:30N 35°22' E 139°51'0 0.0
2016-May-02 19:33N 35°22' E 139°51'0 0.0
2016-May-02 18:33N 35°22' E 139°51'2 2.2
2016-May-02 17:33N 35°23' E 139°49'6 6.2
2016-May-02 16:33N 35°17' E 139°45'1110.5
2016-May-02 15:33N 35°07' E 139°45'242 9.7
2016-May-01 14:33N 34°01' E 135°02'1111.2
2016-May-01 13:33N 34°12' E 135°05'3 3.0
2016-May-01 12:32N 34°15' E 135°07'0 0.0
2016-May-01 11:32N 34°15' E 135°07'0 0.0
2016-May-01 10:32N 34°15' E 135°07'0 0.0
2016-May-01 09:32N 34°15' E 135°07'0 0.0
2016-May-01 08:32N 34°15' E 135°07'0 0.0
2016-May-01 07:32N 34°15' E 135°07'0 0.0
2016-May-01 06:32N 34°15' E 135°07'0 0.0
2016-May-01 05:32N 34°15' E 135°07'0 0.1
2016-May-01 04:33N 34°14' E 135°07'0 0.0
2016-May-01 03:12N 34°14' E 135°07'0 0.1
2016-May-01 02:33N 34°14' E 135°07'0 0.1
2016-May-01 01:33N 34°15' E 135°07'0 0.1
2016-May-01 00:33N 34°14' E 135°07'0 0.0
2016-Apr-30 23:30N 34°15' E 135°07'0 0.0
2016-Apr-30 22:33N 34°15' E 135°07'0 0.1
2016-Apr-30 21:33N 34°15' E 135°07'0 0.1
2016-Apr-30 20:33N 34°15' E 135°07'0 0.1
2016-Apr-30 19:33N 34°15' E 135°07'0 0.1
2016-Apr-30 18:33N 34°14' E 135°07'1 1.1
2016-Apr-30 17:34N 34°15' E 135°06'0 0.0
2016-Apr-30 16:31N 34°15' E 135°06'0 0.0
2016-Apr-30 15:31N 34°15' E 135°06'0 0.0
2016-Apr-30 14:31N 34°15' E 135°06'0 0.0
2016-Apr-30 13:33N 34°15' E 135°06'232 8.6
2016-Apr-29 10:31N 35°07' E 139°41'1010.8
2016-Apr-29 09:33N 35°17' E 139°45'10 9.7
2016-Apr-29 08:33N 35°27' E 139°46'1211.6
2016-Apr-29 07:33N 35°35' E 139°56'6 5.3
2016-Apr-29 06:25N 35°41' E 139°58'0 0.0
2016-Apr-29 05:31N 35°41' E 139°58'0 0.0
2016-Apr-29 04:31N 35°41' E 139°58'0 0.0
2016-Apr-29 03:31N 35°41' E 139°58'0 0.0
2016-Apr-29 02:25N 35°41' E 139°58'0 0.0
2016-Apr-29 01:31N 35°41' E 139°58'0 0.0
2016-Apr-29 00:31N 35°41' E 139°58'0 0.0
2016-Apr-28 23:25N 35°41' E 139°58'0 0.0
2016-Apr-28 22:31N 35°41' E 139°58'0 0.0
2016-Apr-28 21:31N 35°41' E 139°58'0 0.0
2016-Apr-28 20:25N 35°41' E 139°58'0 0.0
2016-Apr-28 19:13N 35°41' E 139°58'0 0.0
2016-Apr-28 18:31N 35°41' E 139°58'0 0.0
2016-Apr-28 16:19N 35°41' E 139°58'0 0.0
2016-Apr-28 15:31N 35°41' E 139°58'0 0.0
2016-Apr-28 14:31N 35°41' E 139°58'0 0.0
2016-Apr-28 13:31N 35°41' E 139°58'0 0.0
2016-Apr-28 12:31N 35°41' E 139°58'0 0.0
2016-Apr-28 11:31N 35°41' E 139°58'0 0.0
2016-Apr-28 10:31N 35°41' E 139°58'0 0.0
2016-Apr-28 09:31N 35°41' E 139°58'0 0.0
2016-Apr-28 08:31N 35°41' E 139°58'0 0.0
2016-Apr-28 07:19N 35°41' E 139°58'0 0.0
2016-Apr-28 06:31N 35°41' E 139°58'0 0.0
2016-Apr-28 05:25N 35°41' E 139°58'0 0.0
2016-Apr-28 04:25N 35°41' E 139°58'0 0.0
2016-Apr-28 03:31N 35°41' E 139°58'0 0.0
2016-Apr-28 02:25N 35°41' E 139°58'0 0.0
2016-Apr-28 01:31N 35°41' E 139°58'0 0.0
2016-Apr-28 00:31N 35°41' E 139°58'4 3.8
2016-Apr-27 23:33N 35°37' E 139°59'0 0.4
2016-Apr-27 22:32N 35°37' E 139°58'4 3.9
2016-Apr-27 21:33N 35°34' E 139°55'1111.1
2016-Apr-27 20:33N 35°25' E 139°48'1010.1
2016-Apr-27 19:33N 35°15' E 139°47'1211.2
2016-Apr-27 18:30N 35°03' E 139°44'16 8.1
2016-Apr-27 16:29N 34°56' E 140°02'67 8.4
2016-Apr-27 08:30N 35°56' E 140°40'0 0.0
2016-Apr-26 19:32N 35°56' E 140°40'7 6.4
2016-Apr-26 18:29N 36°00' E 140°46'7 7.1
2016-Apr-26 17:29N 35°54' E 140°49'1112.1
2016-Apr-26 16:33N 35°44' E 140°55'1312.6
2016-Apr-26 15:33N 35°32' E 140°48'1313.0
2016-Apr-26 14:33N 35°22' E 140°38'1614.2
2016-Apr-26 13:27N 35°10' E 140°26'1314.2
2016-Apr-26 12:33N 35°02' E 140°14'1313.2
2016-Apr-26 11:34N 34°55' E 140°01'1211.6
2016-Apr-26 10:33N 34°54' E 139°46'1111.1
2016-Apr-26 09:33N 35°05' E 139°44'1211.8
2016-Apr-26 08:33N 35°16' E 139°46'1010.2
2016-Apr-26 07:33N 35°27' E 139°46'1211.9
2016-Apr-26 06:33N 35°35' E 139°56'6 6.0
2016-Apr-26 05:33N 35°41' E 139°57'0 0.0
2016-Apr-26 04:28N 35°41' E 139°57'0 0.0
2016-Apr-26 03:28N 35°41' E 139°57'0 0.0
2016-Apr-26 02:28N 35°41' E 139°57'0 0.0
2016-Apr-26 01:10N 35°41' E 139°57'1 0.9
2016-Apr-26 00:34N 35°41' E 139°58'9 9.4
2016-Apr-25 23:34N 35°32' E 139°54'1111.3
2016-Apr-25 22:33N 35°23' E 139°46'1110.4
2016-Apr-25 21:33N 35°12' E 139°47'6811.1
2016-Apr-25 15:27N 34°34' E 138°39'  
Track history (hours):
 
Tides and Currents Weather Stations Pressure Air Temp Water Temp Dewpoint Dewpoint Depression Visibility Wind Speed Wind Dir Waves Ship Positions

Sankoumaru 31

Last reported at 2016-May-05 02:32 UTC. Time now 2016-May-05 02:54 UTC.
Position N 35°22' E 139°53'.

Length 75 m; draft 5 m.

Type: Cargo ship. MMSI: 431501842.

Date/timePositionNaut miles runAvg speedWind from/ knotsBaromVisibWave heightAir tempDewpointWater temp
2016-May-05 02:32N 35°22' E 139°53'0 0.0
2016-May-05 01:32N 35°22' E 139°53'0 0.0
2016-May-05 00:32N 35°22' E 139°53'0 0.0
2016-May-04 23:32N 35°22' E 139°53'0 0.0
2016-May-04 22:23N 35°22' E 139°53'0 0.0
2016-May-04 21:29N 35°22' E 139°53'0 0.0
2016-May-04 20:29N 35°22' E 139°53'0 0.0
2016-May-04 19:17N 35°22' E 139°53'0 0.0
2016-May-04 18:23N 35°22' E 139°53'0 0.0
2016-May-04 17:26N 35°22' E 139°53'0 0.0
2016-May-04 16:20N 35°22' E 139°53'0 0.0
2016-May-04 15:29N 35°22' E 139°53'0 0.0
2016-May-04 14:32N 35°22' E 139°53'0 0.0
2016-May-04 13:32N 35°22' E 139°53'0 0.0
2016-May-04 12:32N 35°22' E 139°53'0 0.0
2016-May-04 11:29N 35°22' E 139°53'0 0.0
2016-May-04 10:20N 35°22' E 139°53'0 0.0
2016-May-04 09:26N 35°22' E 139°53'0 0.0
2016-May-04 07:32N 35°22' E 139°53'0 0.0
2016-May-04 06:32N 35°22' E 139°53'0 0.0
2016-May-04 05:26N 35°22' E 139°53'0 0.0
2016-May-04 04:32N 35°22' E 139°53'0 0.0
2016-May-04 03:29N 35°22' E 139°53'0 0.0
2016-May-04 02:32N 35°22' E 139°53'0 0.0
2016-May-04 01:32N 35°22' E 139°53'0 0.0
2016-May-04 00:23N 35°22' E 139°53'0 0.0
2016-May-03 23:29N 35°22' E 139°53'0 0.0
2016-May-03 22:26N 35°22' E 139°53'0 0.0
2016-May-03 21:20N 35°22' E 139°53'0 0.0
2016-May-03 20:23N 35°22' E 139°53'0 0.0
2016-May-03 19:20N 35°22' E 139°53'0 0.0
2016-May-03 18:32N 35°22' E 139°53'0 0.0
2016-May-03 17:29N 35°22' E 139°53'0 0.0
2016-May-03 16:29N 35°22' E 139°53'0 0.0
2016-May-03 15:29N 35°22' E 139°53'0 0.0
2016-May-03 14:32N 35°22' E 139°53'0 0.0
2016-May-03 13:32N 35°22' E 139°53'0 0.0
2016-May-03 12:32N 35°22' E 139°53'0 0.0
2016-May-03 11:32N 35°22' E 139°53'0 0.0
2016-May-03 10:32N 35°22' E 139°53'0 0.0
2016-May-03 09:26N 35°22' E 139°53'0 0.0
2016-May-03 08:26N 35°22' E 139°53'0 0.0
2016-May-03 07:32N 35°22' E 139°53'0 0.0
2016-May-03 06:32N 35°22' E 139°53'0 0.0
2016-May-03 05:26N 35°22' E 139°53'0 0.0
2016-May-03 04:33N 35°22' E 139°53'0 0.0
2016-May-03 03:33N 35°22' E 139°53'0 0.0
2016-May-03 02:33N 35°22' E 139°53'0 0.0
2016-May-03 01:33N 35°22' E 139°53'1 0.7
2016-May-03 00:33N 35°22' E 139°53'1 1.3
2016-May-02 23:33N 35°22' E 139°51'0 0.0
2016-May-02 22:30N 35°22' E 139°51'0 0.0
2016-May-02 21:33N 35°22' E 139°51'0 0.0
2016-May-02 20:30N 35°22' E 139°51'0 0.0
2016-May-02 19:33N 35°22' E 139°51'0 0.0
2016-May-02 18:33N 35°22' E 139°51'2 2.2
2016-May-02 17:33N 35°23' E 139°49'6 6.2
2016-May-02 16:33N 35°17' E 139°45'1110.5
2016-May-02 15:33N 35°07' E 139°45'242 9.7
2016-May-01 14:33N 34°01' E 135°02'1111.2
2016-May-01 13:33N 34°12' E 135°05'3 3.0
2016-May-01 12:32N 34°15' E 135°07'0 0.0
2016-May-01 11:32N 34°15' E 135°07'0 0.0
2016-May-01 10:32N 34°15' E 135°07'0 0.0
2016-May-01 09:32N 34°15' E 135°07'0 0.0
2016-May-01 08:32N 34°15' E 135°07'0 0.0
2016-May-01 07:32N 34°15' E 135°07'0 0.0
2016-May-01 06:32N 34°15' E 135°07'0 0.0
2016-May-01 05:32N 34°15' E 135°07'0 0.1
2016-May-01 04:33N 34°14' E 135°07'0 0.0
2016-May-01 03:12N 34°14' E 135°07'0 0.1
2016-May-01 02:33N 34°14' E 135°07'0 0.1
2016-May-01 01:33N 34°15' E 135°07'0 0.1
2016-May-01 00:33N 34°14' E 135°07'0 0.0
2016-Apr-30 23:30N 34°15' E 135°07'0 0.0
2016-Apr-30 22:33N 34°15' E 135°07'0 0.1
2016-Apr-30 21:33N 34°15' E 135°07'0 0.1
2016-Apr-30 20:33N 34°15' E 135°07'0 0.1
2016-Apr-30 19:33N 34°15' E 135°07'0 0.1
2016-Apr-30 18:33N 34°14' E 135°07'1 1.1
2016-Apr-30 17:34N 34°15' E 135°06'0 0.0
2016-Apr-30 16:31N 34°15' E 135°06'0 0.0
2016-Apr-30 15:31N 34°15' E 135°06'0 0.0
2016-Apr-30 14:31N 34°15' E 135°06'0 0.0
2016-Apr-30 13:33N 34°15' E 135°06'232 8.6
2016-Apr-29 10:31N 35°07' E 139°41'1010.8
2016-Apr-29 09:33N 35°17' E 139°45'10 9.7
2016-Apr-29 08:33N 35°27' E 139°46'1211.6
2016-Apr-29 07:33N 35°35' E 139°56'6 5.3
2016-Apr-29 06:25N 35°41' E 139°58'0 0.0
2016-Apr-29 05:31N 35°41' E 139°58'0 0.0
2016-Apr-29 04:31N 35°41' E 139°58'0 0.0
2016-Apr-29 03:31N 35°41' E 139°58'0 0.0
2016-Apr-29 02:25N 35°41' E 139°58'0 0.0
2016-Apr-29 01:31N 35°41' E 139°58'0 0.0
2016-Apr-29 00:31N 35°41' E 139°58'0 0.0
2016-Apr-28 23:25N 35°41' E 139°58'0 0.0
2016-Apr-28 22:31N 35°41' E 139°58'0 0.0
2016-Apr-28 21:31N 35°41' E 139°58'0 0.0
2016-Apr-28 20:25N 35°41' E 139°58'0 0.0
2016-Apr-28 19:13N 35°41' E 139°58'0 0.0
2016-Apr-28 18:31N 35°41' E 139°58'0 0.0
2016-Apr-28 16:19N 35°41' E 139°58'0 0.0
2016-Apr-28 15:31N 35°41' E 139°58'0 0.0
2016-Apr-28 14:31N 35°41' E 139°58'0 0.0
2016-Apr-28 13:31N 35°41' E 139°58'0 0.0
2016-Apr-28 12:31N 35°41' E 139°58'0 0.0
2016-Apr-28 11:31N 35°41' E 139°58'0 0.0
2016-Apr-28 10:31N 35°41' E 139°58'0 0.0
2016-Apr-28 09:31N 35°41' E 139°58'0 0.0
2016-Apr-28 08:31N 35°41' E 139°58'0 0.0
2016-Apr-28 07:19N 35°41' E 139°58'0 0.0
2016-Apr-28 06:31N 35°41' E 139°58'0 0.0
2016-Apr-28 05:25N 35°41' E 139°58'0 0.0
2016-Apr-28 04:25N 35°41' E 139°58'0 0.0
2016-Apr-28 03:31N 35°41' E 139°58'0 0.0
2016-Apr-28 02:25N 35°41' E 139°58'0 0.0
2016-Apr-28 01:31N 35°41' E 139°58'0 0.0
2016-Apr-28 00:31N 35°41' E 139°58'4 3.8
2016-Apr-27 23:33N 35°37' E 139°59'0 0.4
2016-Apr-27 22:32N 35°37' E 139°58'4 3.9
2016-Apr-27 21:33N 35°34' E 139°55'1111.1
2016-Apr-27 20:33N 35°25' E 139°48'1010.1
2016-Apr-27 19:33N 35°15' E 139°47'1211.2
2016-Apr-27 18:30N 35°03' E 139°44'16 8.1
2016-Apr-27 16:29N 34°56' E 140°02'67 8.4
2016-Apr-27 08:30N 35°56' E 140°40'0 0.0
2016-Apr-26 19:32N 35°56' E 140°40'7 6.4
2016-Apr-26 18:29N 36°00' E 140°46'7 7.1
2016-Apr-26 17:29N 35°54' E 140°49'1112.1
2016-Apr-26 16:33N 35°44' E 140°55'1312.6
2016-Apr-26 15:33N 35°32' E 140°48'1313.0
2016-Apr-26 14:33N 35°22' E 140°38'1614.2
2016-Apr-26 13:27N 35°10' E 140°26'1314.2
2016-Apr-26 12:33N 35°02' E 140°14'1313.2
2016-Apr-26 11:34N 34°55' E 140°01'1211.6
2016-Apr-26 10:33N 34°54' E 139°46'1111.1
2016-Apr-26 09:33N 35°05' E 139°44'1211.8
2016-Apr-26 08:33N 35°16' E 139°46'1010.2
2016-Apr-26 07:33N 35°27' E 139°46'1211.9
2016-Apr-26 06:33N 35°35' E 139°56'6 6.0
2016-Apr-26 05:33N 35°41' E 139°57'0 0.0
2016-Apr-26 04:28N 35°41' E 139°57'0 0.0
2016-Apr-26 03:28N 35°41' E 139°57'0 0.0
2016-Apr-26 02:28N 35°41' E 139°57'0 0.0
2016-Apr-26 01:10N 35°41' E 139°57'1 0.9
2016-Apr-26 00:34N 35°41' E 139°58'9 9.4
2016-Apr-25 23:34N 35°32' E 139°54'1111.3
2016-Apr-25 22:33N 35°23' E 139°46'1110.4
2016-Apr-25 21:33N 35°12' E 139°47'6811.1
2016-Apr-25 15:27N 34°34' E 138°39'  

Dump ship's entire track history